Terminal Aerodrome Forecast
Issued by NWS

Current Version | Previous Version | Text Only | Print | Product List | Glossary On
Versions: 1 2 3 4 5 6 7 8 9 10 11 12 13 14
000
FTUS43 KIND 031725
TAFLAF
TAF
KLAF 031725Z 0318/0418 31008KT P6SM SCT250
     FM040000 31003KT P6SM SKC
     FM040900 28001KT 3SM BR SKC
     FM041400 28007KT P6SM SCT030=

USA.gov is the U.S. government's official web portal to all federal, state and local government web resources and services.